createdAt,value
2023-04-23T00:00:33.126Z,9.90
2023-04-23T00:03:31.389Z,10.60
2023-04-23T00:06:08.901Z,10.50
2023-04-23T00:08:48.942Z,9.80
2023-04-23T00:11:22.933Z,10.20
2023-04-23T00:14:04.280Z,10.60
2023-04-23T00:16:39.044Z,10.40
2023-04-23T00:19:13.066Z,10.20
2023-04-23T00:22:17.193Z,10.10
2023-04-23T00:24:51.912Z,10.70
2023-04-23T00:27:26.324Z,11.00
2023-04-23T00:30:07.058Z,12.10
2023-04-23T00:35:21.115Z,11.20
2023-04-23T00:38:03.554Z,11.40
2023-04-23T00:40:37.694Z,11.70
2023-04-23T00:43:12.375Z,10.40
2023-04-23T00:45:46.765Z,10.90
2023-04-23T00:48:20.829Z,12.00
2023-04-23T00:50:56.980Z,10.40
2023-04-23T00:53:31.093Z,10.20
2023-04-23T00:56:07.568Z,10.90
2023-04-23T00:58:41.979Z,10.90
2023-04-23T01:01:22.573Z,11.20
2023-04-23T01:03:57.195Z,11.10
2023-04-23T01:06:36.501Z,10.90
2023-04-23T01:09:13.959Z,11.90
2023-04-23T01:11:58.246Z,11.80
2023-04-23T01:14:37.390Z,11.60
2023-04-23T01:17:19.575Z,11.80
2023-04-23T01:20:04.946Z,10.90
2023-04-23T01:23:04.355Z,10.40
2023-04-23T01:25:45.226Z,11.00
2023-04-23T01:28:27.176Z,10.50
2023-04-23T01:31:17.955Z,10.30
2023-04-23T01:33:57.151Z,10.70
2023-04-23T01:36:43.373Z,10.90
2023-04-23T01:39:31.994Z,11.10
2023-04-23T01:42:11.837Z,10.40
2023-04-23T01:44:47.897Z,10.10
2023-04-23T01:47:26.930Z,10.40
2023-04-23T01:50:13.116Z,10.80
2023-04-23T01:52:51.781Z,12.20
2023-04-23T01:55:43.225Z,12.70
2023-04-23T02:00:59.873Z,12.00
2023-04-23T02:06:30.828Z,12.80
2023-04-23T02:09:08.421Z,12.40
2023-04-23T02:11:57.893Z,13.00
2023-04-23T02:14:34.877Z,11.30
2023-04-23T02:17:26.822Z,11.70
2023-04-23T02:20:03.677Z,13.00
2023-04-23T02:22:41.203Z,13.20
2023-04-23T02:25:31.051Z,12.80
2023-04-23T02:28:08.553Z,11.80
2023-04-23T02:30:55.275Z,12.50
2023-04-23T02:33:39.003Z,12.50
2023-04-23T02:36:23.338Z,12.40
2023-04-23T02:39:05.847Z,13.10
2023-04-23T02:41:56.961Z,13.50
2023-04-23T02:44:33.725Z,13.80
2023-04-23T02:47:25.422Z,13.10
2023-04-23T02:50:19.947Z,13.30
2023-04-23T02:53:01.320Z,13.40
2023-04-23T02:55:38.407Z,13.30
2023-04-23T02:58:30.228Z,12.20
2023-04-23T03:01:13.102Z,12.60
2023-04-23T03:03:50.438Z,13.50
2023-04-23T03:06:52.112Z,12.80
2023-04-23T03:09:43.915Z,12.70
2023-04-23T03:12:13.328Z,12.60
2023-04-23T03:15:02.899Z,12.90
2023-04-23T03:17:56.170Z,13.50
2023-04-23T03:21:14.301Z,14.60
2023-04-23T03:23:56.463Z,14.00
2023-04-23T03:26:35.517Z,15.10
2023-04-23T03:29:14.139Z,14.80
2023-04-23T03:32:08.443Z,14.90
2023-04-23T03:34:51.142Z,14.50
2023-04-23T03:37:41.220Z,15.00
2023-04-23T03:40:33.155Z,14.30
2023-04-23T03:43:15.965Z,13.10
2023-04-23T03:46:08.532Z,13.70
2023-04-23T03:48:53.884Z,13.20
2023-04-23T03:51:59.329Z,13.30
2023-04-23T03:54:49.620Z,12.90
2023-04-23T03:57:43.200Z,14.10
2023-04-23T04:00:39.419Z,13.20
2023-04-23T04:03:46.205Z,14.50
2023-04-23T04:06:38.025Z,14.80
2023-04-23T04:09:22.270Z,14.20
2023-04-23T04:12:15.201Z,13.70
2023-04-23T04:14:57.530Z,14.30
2023-04-23T04:17:53.201Z,13.40
2023-04-23T04:20:44.458Z,13.70
2023-04-23T04:23:47.250Z,12.90
2023-04-23T04:26:39.487Z,12.80
2023-04-23T04:29:13.508Z,12.10
2023-04-23T04:31:45.099Z,12.20
2023-04-23T04:34:23.868Z,11.60
2023-04-23T04:37:01.552Z,12.10
2023-04-23T04:39:41.821Z,12.50
2023-04-23T04:42:13.360Z,12.60
2023-04-23T04:44:47.165Z,13.40
2023-04-23T04:47:16.475Z,13.30
2023-04-23T04:49:47.720Z,12.40
2023-04-23T04:52:17.208Z,12.60
2023-04-23T04:54:51.116Z,12.20
2023-04-23T04:57:21.641Z,11.70
2023-04-23T05:02:23.589Z,10.50
2023-04-23T05:04:55.272Z,10.70
2023-04-23T05:07:32.565Z,10.20
2023-04-23T05:10:01.347Z,10.30
2023-04-23T05:12:30.132Z,10.80
2023-04-23T05:15:09.895Z,10.10
2023-04-23T05:17:41.589Z,10.50
2023-04-23T05:20:11.238Z,10.10
2023-04-23T05:22:42.690Z,11.40
2023-04-23T05:25:15.076Z,11.90
2023-04-23T05:27:46.713Z,10.90
2023-04-23T05:30:15.704Z,10.70
2023-04-23T05:32:47.182Z,10.90
2023-04-23T05:35:16.553Z,10.10
2023-04-23T05:37:45.048Z,11.50
2023-04-23T05:40:13.819Z,10.20
2023-04-23T05:42:42.406Z,10.40
2023-04-23T05:45:11.577Z,10.80
2023-04-23T05:47:42.490Z,10.40
2023-04-23T05:50:11.943Z,10.40
2023-04-23T05:52:40.305Z,10.10
2023-04-23T05:55:10.143Z,10.20
2023-04-23T05:57:39.528Z,10.50
2023-04-23T06:00:17.322Z,10.40
2023-04-23T06:02:48.276Z,9.70
2023-04-23T06:05:17.049Z,9.90
2023-04-23T06:07:46.127Z,9.50
2023-04-23T06:10:20.252Z,9.30
2023-04-23T06:12:49.536Z,10.20
2023-04-23T06:15:21.193Z,9.00
2023-04-23T06:17:49.801Z,8.80
2023-04-23T06:20:21.125Z,8.60
2023-04-23T06:22:49.804Z,9.20
2023-04-23T06:25:20.769Z,8.00
2023-04-23T06:27:49.329Z,8.30
2023-04-23T06:30:21.507Z,8.30
2023-04-23T06:32:50.598Z,8.30
2023-04-23T06:35:19.267Z,8.20
2023-04-23T06:37:56.455Z,8.80
2023-04-23T06:40:25.139Z,7.80
2023-04-23T06:42:56.046Z,7.50
2023-04-23T06:45:57.317Z,7.80
2023-04-23T06:48:26.710Z,8.00
2023-04-23T06:50:55.402Z,7.60
2023-04-23T06:53:23.879Z,6.80
2023-04-23T06:55:52.460Z,6.80
2023-04-23T06:58:22.171Z,6.90
2023-04-23T07:00:50.720Z,6.70
2023-04-23T07:03:20.367Z,6.80
2023-04-23T07:05:49.464Z,6.50
2023-04-23T07:08:17.841Z,6.30
2023-04-23T07:10:48.537Z,6.50
2023-04-23T07:13:17.569Z,5.80
2023-04-23T07:15:46.676Z,5.70
2023-04-23T07:18:15.246Z,6.60
2023-04-23T07:20:43.624Z,5.50
2023-04-23T07:23:11.898Z,6.00
2023-04-23T07:25:40.379Z,5.00
2023-04-23T07:28:11.626Z,4.80
2023-04-23T07:30:40.155Z,5.00
2023-04-23T07:33:08.988Z,5.10
2023-04-23T07:35:37.577Z,4.60
2023-04-23T07:38:05.964Z,5.40
2023-04-23T07:40:34.422Z,5.00
2023-04-23T07:43:03.114Z,5.00
2023-04-23T07:45:31.599Z,4.70
2023-04-23T07:48:02.432Z,5.70
2023-04-23T07:50:31.117Z,5.60
2023-04-23T07:52:59.493Z,5.40
2023-04-23T07:55:27.875Z,5.10
2023-04-23T07:57:56.254Z,5.20
2023-04-23T08:00:24.639Z,4.60
2023-04-23T08:02:54.268Z,5.10
2023-04-23T08:05:22.702Z,5.70
2023-04-23T08:07:51.313Z,4.90
2023-04-23T08:10:19.665Z,4.90
2023-04-23T08:12:48.044Z,5.30
2023-04-23T08:15:16.434Z,4.70
2023-04-23T08:17:45.223Z,5.00
2023-04-23T08:20:13.582Z,4.60
2023-04-23T08:22:41.724Z,5.20
2023-04-23T08:25:10.334Z,4.90
2023-04-23T08:27:39.437Z,4.80
2023-04-23T08:30:09.038Z,5.10
2023-04-23T08:32:39.011Z,5.30
2023-04-23T08:37:36.627Z,4.60
2023-04-23T08:40:06.034Z,4.70
2023-04-23T08:42:57.453Z,4.50
2023-04-23T08:45:27.058Z,3.90
2023-04-23T08:48:51.756Z,4.60
2023-04-23T08:51:22.078Z,4.40
2023-04-23T08:53:52.680Z,4.70
2023-04-23T08:56:22.016Z,4.70
2023-04-23T08:58:51.001Z,4.10
2023-04-23T09:01:19.448Z,4.50
2023-04-23T09:03:48.645Z,4.10
2023-04-23T09:06:16.950Z,4.30
2023-04-23T09:08:46.255Z,4.30
2023-04-23T09:11:16.059Z,4.40
2023-04-23T09:13:44.241Z,4.20
2023-04-23T09:16:12.417Z,4.10
2023-04-23T09:18:40.781Z,4.30
2023-04-23T09:21:09.162Z,4.40
2023-04-23T09:23:39.761Z,4.80
2023-04-23T09:26:08.372Z,4.50
2023-04-23T09:28:37.672Z,3.90
2023-04-23T09:31:08.710Z,4.30
2023-04-23T09:33:36.890Z,3.60
2023-04-23T09:36:12.439Z,3.90
2023-04-23T09:38:41.844Z,4.10
2023-04-23T09:41:22.902Z,4.20
2023-04-23T09:43:54.169Z,3.80
2023-04-23T09:46:37.679Z,3.60
2023-04-23T09:49:08.079Z,3.90
2023-04-23T09:51:54.093Z,3.60
2023-04-23T09:54:23.781Z,3.70
2023-04-23T09:56:54.043Z,3.90
2023-04-23T09:59:45.937Z,3.70
2023-04-23T10:02:16.144Z,4.00
2023-04-23T10:04:44.791Z,3.90
2023-04-23T10:07:20.167Z,3.60
2023-04-23T10:09:48.688Z,3.50
2023-04-23T10:12:39.427Z,3.30
2023-04-23T10:15:06.509Z,3.70
2023-04-23T10:17:38.696Z,3.40
2023-04-23T10:20:10.445Z,3.40
2023-04-23T10:22:39.573Z,3.80
2023-04-23T10:25:12.159Z,3.20
2023-04-23T10:27:53.085Z,3.20
2023-04-23T10:30:23.178Z,3.40
2023-04-23T10:35:20.281Z,3.20
2023-04-23T10:37:48.852Z,2.80
2023-04-23T10:40:22.330Z,2.70
2023-04-23T10:42:51.226Z,3.20
2023-04-23T10:47:54.383Z,3.40
2023-04-23T10:50:31.016Z,3.20
2023-04-23T10:52:59.485Z,3.30
2023-04-23T10:55:29.602Z,3.20
2023-04-23T10:58:02.949Z,3.10
2023-04-23T11:00:52.372Z,3.00
2023-04-23T11:03:44.133Z,2.90
2023-04-23T11:06:40.336Z,3.20
2023-04-23T11:09:31.226Z,3.60
2023-04-23T11:12:01.683Z,3.40
2023-04-23T11:14:38.303Z,2.90
2023-04-23T11:17:09.262Z,3.30
2023-04-23T11:19:41.919Z,2.90
2023-04-23T11:22:20.553Z,3.40
2023-04-23T11:24:50.946Z,2.60
2023-04-23T11:27:19.978Z,2.10
2023-04-23T11:29:48.144Z,3.40
2023-04-23T11:32:18.396Z,3.40
2023-04-23T11:34:48.277Z,2.30
2023-04-23T11:37:18.396Z,8.20
2023-04-23T11:39:47.765Z,1.70
2023-04-23T11:42:17.482Z,1.80
2023-04-23T11:44:46.407Z,2.30
2023-04-23T11:47:16.828Z,1.20
2023-04-23T11:49:46.228Z,1.70
2023-04-23T11:52:14.716Z,1.70
2023-04-23T11:54:43.184Z,3.30
2023-04-23T11:57:12.090Z,2.20
2023-04-23T11:59:40.600Z,2.50
2023-04-23T12:02:09.219Z,1.60
2023-04-23T12:04:40.300Z,2.00
2023-04-23T12:07:19.580Z,2.40
2023-04-23T12:09:51.564Z,1.90
2023-04-23T12:12:20.968Z,2.20
2023-04-23T12:14:49.142Z,2.10
2023-04-23T12:17:17.411Z,1.80
2023-04-23T12:19:45.686Z,2.10
2023-04-23T12:22:13.765Z,2.10
2023-04-23T12:24:51.804Z,2.00
2023-04-23T12:27:22.489Z,2.10
2023-04-23T12:30:00.289Z,1.90
2023-04-23T12:32:28.500Z,2.20
2023-04-23T12:34:57.112Z,2.20
2023-04-23T12:37:27.157Z,2.00
2023-04-23T12:39:57.059Z,2.30
2023-04-23T12:42:26.283Z,1.90
2023-04-23T12:44:57.063Z,1.90
2023-04-23T12:47:25.516Z,1.90
2023-04-23T12:49:55.398Z,2.20
2023-04-23T12:52:23.571Z,2.40
2023-04-23T12:54:56.595Z,2.10
2023-04-23T12:57:25.456Z,2.10
2023-04-23T12:59:55.223Z,2.10
2023-04-23T13:02:24.982Z,2.50
2023-04-23T13:04:59.686Z,2.50
2023-04-23T13:07:28.239Z,2.30
2023-04-23T13:09:57.612Z,2.50
2023-04-23T13:12:26.176Z,2.60
2023-04-23T13:14:54.332Z,2.40
2023-04-23T13:17:23.385Z,2.50
2023-04-23T13:19:51.599Z,2.70
2023-04-23T13:22:19.870Z,2.50
2023-04-23T13:24:48.343Z,2.00
2023-04-23T13:27:16.512Z,2.20
2023-04-23T13:29:44.969Z,2.40
2023-04-23T13:32:13.505Z,2.40
2023-04-23T13:34:42.164Z,2.40
2023-04-23T13:37:10.433Z,2.60
2023-04-23T13:39:41.678Z,2.10
2023-04-23T13:42:10.419Z,2.40
2023-04-23T13:44:38.747Z,2.00
2023-04-23T13:47:07.325Z,2.20
2023-04-23T13:49:36.215Z,2.30
2023-04-23T13:52:07.161Z,2.20
2023-04-23T13:54:39.520Z,2.40
2023-04-23T13:57:08.119Z,1.90
2023-04-23T13:59:36.276Z,2.20
2023-04-23T14:02:04.549Z,1.90
2023-04-23T14:04:32.770Z,2.20
2023-04-23T14:07:01.115Z,2.20
2023-04-23T14:09:30.200Z,2.30
2023-04-23T14:11:58.567Z,2.40
2023-04-23T14:14:26.847Z,2.50
2023-04-23T14:16:55.218Z,2.10
2023-04-23T14:19:24.012Z,2.50
2023-04-23T14:21:52.286Z,1.80
2023-04-23T14:24:28.662Z,2.20
2023-04-23T14:26:57.124Z,2.30
2023-04-23T14:29:30.217Z,2.80
2023-04-23T14:31:58.383Z,2.80
2023-04-23T14:34:27.282Z,2.50
2023-04-23T14:36:55.649Z,2.20
2023-04-23T14:39:23.927Z,2.90
2023-04-23T14:41:52.102Z,2.70
2023-04-23T14:44:20.267Z,2.50
2023-04-23T14:46:51.227Z,2.60
2023-04-23T14:49:20.991Z,2.70
2023-04-23T14:51:51.120Z,2.40
2023-04-23T14:54:19.303Z,2.50
2023-04-23T14:56:47.449Z,2.30
2023-04-23T14:59:15.663Z,2.70
2023-04-23T15:01:44.223Z,2.30
2023-04-23T15:04:12.700Z,2.60
2023-04-23T15:06:41.091Z,3.20
2023-04-23T15:09:09.467Z,2.70
2023-04-23T15:11:39.038Z,2.90
2023-04-23T15:14:30.795Z,3.10
2023-04-23T15:16:59.090Z,2.60
2023-04-23T15:19:27.236Z,3.40
2023-04-23T15:21:55.412Z,3.30
2023-04-23T15:24:23.592Z,3.20
2023-04-23T15:26:53.606Z,3.70
2023-04-23T15:29:21.775Z,3.70
2023-04-23T15:31:52.043Z,3.20
2023-04-23T15:34:20.273Z,3.90
2023-04-23T15:36:48.350Z,3.40
2023-04-23T15:39:16.636Z,3.80
2023-04-23T15:41:46.208Z,3.60
2023-04-23T15:44:14.704Z,3.50
2023-04-23T15:46:42.772Z,3.80
2023-04-23T15:49:10.946Z,3.60
2023-04-23T15:51:39.015Z,3.60
2023-04-23T15:54:08.803Z,3.20
2023-04-23T15:59:06.153Z,3.10
2023-04-23T16:01:34.642Z,2.80
2023-04-23T16:06:34.086Z,2.60
2023-04-23T16:09:03.800Z,2.30
2023-04-23T16:11:32.066Z,1.90
2023-04-23T16:14:00.242Z,2.00
2023-04-23T16:16:28.954Z,1.80
2023-04-23T16:18:57.819Z,2.00
2023-04-23T16:21:28.140Z,2.30
2023-04-23T16:23:56.306Z,2.10
2023-04-23T16:26:24.806Z,2.20
2023-04-23T16:29:05.395Z,2.30
2023-04-23T16:31:40.637Z,2.20
2023-04-23T16:34:08.870Z,2.60
2023-04-23T16:36:37.346Z,2.90
2023-04-23T16:39:05.834Z,2.70
2023-04-23T16:41:34.122Z,2.80
2023-04-23T16:44:02.379Z,2.90
2023-04-23T16:46:31.802Z,2.70
2023-04-23T16:49:00.490Z,3.00
2023-04-23T16:51:29.908Z,3.20
2023-04-23T16:53:58.248Z,3.30
2023-04-23T16:56:26.818Z,2.90
2023-04-23T16:58:54.991Z,3.00
2023-04-23T17:01:23.084Z,3.10
2023-04-23T17:03:51.481Z,3.50
2023-04-23T17:06:28.322Z,4.00
2023-04-23T17:08:58.196Z,3.40
2023-04-23T17:11:27.626Z,3.40
2023-04-23T17:13:56.716Z,3.70
2023-04-23T17:16:28.047Z,3.40
2023-04-23T17:18:57.469Z,3.30
2023-04-23T17:21:26.149Z,6.30
2023-04-23T17:23:54.444Z,4.20
2023-04-23T17:26:22.598Z,3.20
2023-04-23T17:28:51.181Z,3.00
2023-04-23T17:31:19.482Z,3.30
2023-04-23T17:33:49.630Z,3.20
2023-04-23T17:38:46.461Z,2.80
2023-04-23T17:41:14.916Z,2.30
2023-04-23T17:43:43.199Z,3.20
2023-04-23T17:46:11.441Z,3.30
2023-04-23T17:48:40.868Z,3.30
2023-04-23T17:51:09.041Z,3.80
2023-04-23T17:53:37.211Z,3.30
2023-04-23T17:56:05.696Z,3.50
2023-04-23T17:58:35.883Z,3.00
2023-04-23T18:01:04.306Z,3.20
2023-04-23T18:03:32.658Z,3.00
2023-04-23T18:06:01.399Z,3.60
2023-04-23T18:08:30.578Z,3.10
2023-04-23T18:10:59.550Z,3.30
2023-04-23T18:13:27.703Z,3.40
2023-04-23T18:15:56.492Z,3.10
2023-04-23T18:18:24.760Z,3.20
2023-04-23T18:20:53.041Z,3.90
2023-04-23T18:23:22.276Z,3.70
2023-04-23T18:25:50.825Z,4.10
2023-04-23T18:28:19.099Z,3.80
2023-04-23T18:30:47.804Z,3.50
2023-04-23T18:33:16.739Z,4.10
2023-04-23T18:35:48.322Z,3.40
2023-04-23T18:38:32.438Z,3.90
2023-04-23T18:41:02.993Z,3.70
2023-04-23T18:43:34.663Z,3.60
2023-04-23T18:46:02.968Z,3.50
2023-04-23T18:48:34.064Z,3.50
2023-04-23T18:51:13.633Z,3.40
2023-04-23T18:53:41.776Z,3.50
2023-04-23T18:56:10.357Z,3.30
2023-04-23T18:58:38.528Z,3.10
2023-04-23T19:01:06.871Z,3.70
2023-04-23T19:03:35.273Z,3.60
2023-04-23T19:06:07.851Z,4.20
2023-04-23T19:08:36.223Z,3.60
2023-04-23T19:11:05.037Z,4.00
2023-04-23T19:13:33.294Z,3.40
2023-04-23T19:16:01.595Z,3.40
2023-04-23T19:18:30.057Z,3.60
2023-04-23T19:20:58.735Z,3.70
2023-04-23T19:23:26.902Z,3.80
2023-04-23T19:25:55.088Z,3.40
2023-04-23T19:28:24.670Z,3.40
2023-04-23T19:30:53.085Z,3.70
2023-04-23T19:33:21.336Z,3.70
2023-04-23T19:35:49.617Z,3.20
2023-04-23T19:38:18.203Z,3.60
2023-04-23T19:40:46.570Z,3.50
2023-04-23T19:43:15.056Z,4.40
2023-04-23T19:45:43.222Z,4.10
2023-04-23T19:48:11.497Z,4.30
2023-04-23T19:50:39.907Z,3.90
2023-04-23T19:53:08.150Z,3.90
2023-04-23T19:55:36.542Z,4.10
2023-04-23T19:58:07.263Z,3.90
2023-04-23T20:00:41.671Z,4.00
2023-04-23T20:03:10.622Z,3.60
2023-04-23T20:05:39.352Z,4.00
2023-04-23T20:08:14.905Z,3.60
2023-04-23T20:10:43.478Z,4.50
2023-04-23T20:13:11.969Z,4.10
2023-04-23T20:15:40.553Z,4.10
2023-04-23T20:18:08.879Z,4.00
2023-04-23T20:20:37.808Z,4.70
2023-04-23T20:23:05.982Z,6.30
2023-04-23T20:25:36.547Z,6.40
2023-04-23T20:28:05.393Z,6.00
2023-04-23T20:30:33.460Z,5.50
2023-04-23T20:33:01.679Z,5.00
2023-04-23T20:35:31.758Z,5.30
2023-04-23T20:38:01.056Z,5.20
2023-04-23T20:40:34.789Z,6.40
2023-04-23T20:43:04.774Z,6.40
2023-04-23T20:45:34.834Z,5.30
2023-04-23T20:48:03.885Z,4.20
2023-04-23T20:50:32.361Z,5.10
2023-04-23T20:53:00.528Z,9.70
2023-04-23T20:55:28.710Z,7.60
2023-04-23T20:57:56.987Z,5.70
2023-04-23T21:00:25.256Z,4.70
2023-04-23T21:02:54.009Z,4.80
2023-04-23T21:05:22.332Z,4.70
2023-04-23T21:07:51.000Z,4.10
2023-04-23T21:10:19.481Z,4.50
2023-04-23T21:12:47.669Z,4.60
2023-04-23T21:15:16.953Z,4.30
2023-04-23T21:17:45.053Z,4.70
2023-04-23T21:20:13.805Z,4.00
2023-04-23T21:22:41.872Z,4.30
2023-04-23T21:25:10.148Z,4.00
2023-04-23T21:27:38.425Z,5.80
2023-04-23T21:30:14.450Z,6.10
2023-04-23T21:32:42.809Z,5.50
2023-04-23T21:35:11.029Z,5.00
2023-04-23T21:37:39.212Z,4.70
2023-04-23T21:40:10.891Z,5.70
2023-04-23T21:42:39.337Z,5.60
2023-04-23T21:45:08.815Z,6.50
2023-04-23T21:47:37.152Z,7.70
2023-04-23T21:50:06.107Z,7.40
2023-04-23T21:52:34.376Z,7.30
2023-04-23T21:55:02.452Z,8.50
2023-04-23T21:57:30.823Z,6.40
2023-04-23T21:59:59.113Z,4.20
2023-04-23T22:02:27.485Z,4.50
2023-04-23T22:04:56.067Z,3.90
2023-04-23T22:07:24.439Z,4.40
2023-04-23T22:09:52.709Z,4.90
2023-04-23T22:12:20.886Z,4.80
2023-04-23T22:14:48.954Z,5.90
2023-04-23T22:17:19.038Z,5.70
2023-04-23T22:22:15.724Z,4.30
2023-04-23T22:24:43.791Z,4.60
2023-04-23T22:27:12.065Z,4.10
2023-04-23T22:29:40.428Z,3.80
2023-04-23T22:32:08.945Z,4.60
2023-04-23T22:34:37.198Z,4.30
2023-04-23T22:37:05.672Z,4.40
2023-04-23T22:39:33.744Z,4.10
2023-04-23T22:42:03.148Z,4.10
2023-04-23T22:44:31.434Z,4.30
2023-04-23T22:46:59.595Z,5.20
2023-04-23T22:49:27.668Z,5.50
2023-04-23T22:51:55.836Z,5.50
2023-04-23T22:54:24.311Z,6.00
2023-04-23T22:56:53.307Z,5.20
2023-04-23T22:59:21.784Z,5.20
2023-04-23T23:01:49.877Z,5.40
2023-04-23T23:04:18.081Z,4.70
2023-04-23T23:06:46.724Z,4.50
2023-04-23T23:09:14.884Z,4.80
2023-04-23T23:11:43.067Z,4.10
2023-04-23T23:14:11.741Z,4.70
2023-04-23T23:16:40.735Z,5.10
2023-04-23T23:19:08.905Z,4.60
2023-04-23T23:21:37.083Z,4.90
2023-04-23T23:24:05.352Z,5.60
2023-04-23T23:26:33.525Z,5.20
2023-04-23T23:29:01.718Z,5.30
2023-04-23T23:31:29.881Z,5.00
2023-04-23T23:33:58.553Z,5.40
2023-04-23T23:36:28.160Z,5.60
2023-04-23T23:38:56.233Z,5.00
2023-04-23T23:41:24.509Z,4.70
2023-04-23T23:43:53.375Z,4.60
2023-04-23T23:46:21.646Z,5.30
2023-04-23T23:48:49.840Z,5.10
2023-04-23T23:51:18.319Z,5.10
2023-04-23T23:53:46.499Z,4.90
2023-04-23T23:56:14.675Z,4.60
2023-04-23T23:58:42.733Z,5.30
